Time;durP1;ratioP1;P1;durP2;ratioP2;P2;SDS_P1;SDS_P2;PMS_P1;PMS_P2;Temp;Humidity;BMP_temperature;BMP_pressure;BME280_temperature;BME280_humidity;BME280_pressure;Samples;Min_cycle;Max_cycle;Signal;HPM_P1;HPM_P2
2022/05/20 00:00:19;;;;;;;;;;;;;;;24.73;100.00;98473.84;5120936;28;19950;-61
2022/05/20 00:02:48;;;;;;;;;;;;;;;24.83;100.00;98467.16;5121437;28;19924;-60
2022/05/20 00:05:15;;;;;;;;;;;;;;;24.81;100.00;98480.34;5124283;28;19920;-61
2022/05/20 00:07:42;;;;;;;;;;;;;;;24.75;100.00;98476.25;5123926;28;20329;-62
2022/05/20 00:10:12;;;;;;;;;;;;;;;24.79;100.00;98460.78;5120935;28;20376;-60
2022/05/20 00:12:40;;;;;;;;;;;;;;;24.84;100.00;98464.09;5120528;28;19924;-61
2022/05/20 00:15:10;;;;;;;;;;;;;;;24.86;100.00;98467.28;5115410;28;19924;-61
2022/05/20 00:17:38;;;;;;;;;;;;;;;24.77;100.00;98465.78;5124492;28;19920;-61
2022/05/20 00:20:07;;;;;;;;;;;;;;;24.82;100.00;98460.13;5127987;28;19940;-61
2022/05/20 00:22:35;;;;;;;;;;;;;;;24.82;100.00;98462.88;5127916;28;19980;-62
2022/05/20 00:28:00;;;;;;;;;;;;;;;24.74;100.00;98461.78;5084124;28;19921;-61
2022/05/20 00:30:27;;;;;;;;;;;;;;;24.69;100.00;98468.31;5118011;28;19926;-61
2022/05/20 00:32:56;;;;;;;;;;;;;;;24.73;100.00;98468.38;5125636;28;19920;-61
2022/05/20 00:35:23;;;;;;;;;;;;;;;24.69;100.00;98462.84;5124173;28;19991;-62
2022/05/20 00:37:50;;;;;;;;;;;;;;;24.68;100.00;98461.22;5125164;28;19924;-62
2022/05/20 00:40:19;;;;;;;;;;;;;;;24.71;100.00;98457.81;5127543;28;19941;-61
2022/05/20 00:42:48;;;;;;;;;;;;;;;24.76;100.00;98453.28;5119723;28;19924;-61
2022/05/20 00:45:20;;;;;;;;;;;;;;;24.73;100.00;98451.22;5127513;28;19989;-62
2022/05/20 00:47:47;;;;;;;;;;;;;;;24.73;100.00;98451.22;5126381;28;19920;-61
2022/05/20 00:50:17;;;;;;;;;;;;;;;24.68;100.00;98460.44;5123874;28;19920;-61
2022/05/20 00:52:49;;;;;;;;;;;;;;;24.65;100.00;98461.13;5124175;28;19924;-62
2022/05/20 00:55:18;;;;;;;;;;;;;;;24.65;100.00;98464.66;5127285;28;19987;-61
2022/05/20 00:57:48;;;;;;;;;;;;;;;24.58;100.00;98471.81;5126192;28;19924;-61
2022/05/20 01:00:20;;;;;;;;;;;;;;;24.55;100.00;98467.81;5123729;28;19931;-61
2022/05/20 01:02:49;;;;;;;;;;;;;;;24.53;100.00;98469.31;5124502;28;19919;-61
2022/05/20 01:05:19;;;;;;;;;;;;;;;24.49;100.00;98480.09;5127089;27;19919;-60
2022/05/20 01:07:47;;;;;;;;;;;;;;;24.45;100.00;98481.16;5126081;28;19978;-62
2022/05/20 01:10:14;;;;;;;;;;;;;;;24.39;100.00;98483.28;5123492;28;19920;-61
2022/05/20 01:12:41;;;;;;;;;;;;;;;24.30;100.00;98485.31;5123171;28;19946;-62
2022/05/20 01:15:10;;;;;;;;;;;;;;;24.36;100.00;98478.50;5127044;28;19920;-61
2022/05/20 01:17:40;;;;;;;;;;;;;;;24.35;100.00;98482.38;5126908;28;19927;-60
2022/05/20 01:20:10;;;;;;;;;;;;;;;24.31;100.00;98488.84;5115198;28;19921;-61
2022/05/20 01:22:48;;;;;;;;;;;;;;;24.31;100.00;98488.84;5123288;28;19963;-61
2022/05/20 01:25:16;;;;;;;;;;;;;;;24.34;100.00;98480.78;5116436;28;19927;-62
2022/05/20 01:27:44;;;;;;;;;;;;;;;24.39;100.00;98496.94;5123155;28;19920;-61
2022/05/20 01:30:12;;;;;;;;;;;;;;;24.41;100.00;98500.13;5126463;28;19920;-62
2022/05/20 01:32:40;;;;;;;;;;;;;;;24.41;100.00;98500.13;5126377;28;19959;-61
2022/05/20 01:35:08;;;;;;;;;;;;;;;24.42;100.00;98504.44;5114651;28;19942;-61
2022/05/20 01:37:36;;;;;;;;;;;;;;;24.37;100.00;98499.22;5122794;28;19920;-63
2022/05/20 01:40:07;;;;;;;;;;;;;;;24.39;100.00;98502.38;5126285;28;19958;-61
2022/05/20 01:42:37;;;;;;;;;;;;;;;24.37;100.00;98504.66;5119421;28;19931;-61
2022/05/20 01:45:08;;;;;;;;;;;;;;;24.35;100.00;98509.69;5126303;28;19954;-62
2022/05/20 01:47:39;;;;;;;;;;;;;;;24.36;100.00;98505.78;5126132;28;19920;-61
2022/05/20 01:50:10;;;;;;;;;;;;;;;24.35;100.00;98506.16;5114500;28;19943;-62
2022/05/20 01:52:41;;;;;;;;;;;;;;;24.29;100.00;98508.31;5122550;28;19920;-61
2022/05/20 01:55:14;;;;;;;;;;;;;;;24.20;100.00;98510.34;5114460;28;19942;-60
2022/05/20 01:57:44;;;;;;;;;;;;;;;24.21;100.00;98501.00;5122494;28;19920;-61
2022/05/20 02:00:13;;;;;;;;;;;;;;;24.22;100.00;98505.31;5126073;28;19960;-61
2022/05/20 02:02:45;;;;;;;;;;;;;;;24.17;100.00;98500.88;5125951;28;19958;-61
2022/05/20 02:05:16;;;;;;;;;;;;;;;24.13;100.00;98501.88;5122624;28;19920;-61
2022/05/20 02:07:46;;;;;;;;;;;;;;;24.06;100.00;98501.59;5122449;28;19942;-61
2022/05/20 02:10:19;;;;;;;;;;;;;;;24.11;100.00;98512.31;5126073;28;19920;-61
2022/05/20 02:12:48;;;;;;;;;;;;;;;24.07;100.00;98506.75;5117828;28;19924;-61
2022/05/20 02:15:18;;;;;;;;;;;;;;;24.14;100.00;98503.47;5125702;28;19980;-61
2022/05/20 02:17:48;;;;;;;;;;;;;;;24.09;100.00;98509.91;5125153;28;19924;-61
2022/05/20 02:20:19;;;;;;;;;;;;;;;24.09;100.00;98515.38;5122190;28;19928;-62
2022/05/20 02:22:48;;;;;;;;;;;;;;;24.02;100.00;98504.19;5122664;28;19920;-61
2022/05/20 02:25:22;;;;;;;;;;;;;;;24.00;100.00;98500.22;5125804;28;19958;-60
2022/05/20 02:27:53;;;;;;;;;;;;;;;23.95;100.00;98503.94;5124371;28;19919;-61
2022/05/20 02:30:24;;;;;;;;;;;;;;;23.98;100.00;98508.75;5122245;28;19920;-61
2022/05/20 02:32:54;;;;;;;;;;;;;;;23.98;100.00;98506.03;5123386;28;20001;-61
2022/05/20 02:35:21;;;;;;;;;;;;;;;24.02;100.00;98498.75;5125439;28;20036;-61
2022/05/20 02:37:48;;;;;;;;;;;;;;;24.04;100.00;98498.44;5123759;28;19920;-61
2022/05/20 02:40:17;;;;;;;;;;;;;;;24.04;100.00;98498.44;5121927;28;19920;-60
2022/05/20 02:42:46;;;;;;;;;;;;;;;24.06;100.00;98502.41;5122195;28;19962;-61
2022/05/20 02:45:14;;;;;;;;;;;;;;;24.05;100.00;98506.25;5125499;28;19979;-61
2022/05/20 02:47:42;;;;;;;;;;;;;;;24.03;100.00;98507.72;5125152;28;19926;-61
2022/05/20 02:50:11;;;;;;;;;;;;;;;23.95;100.00;98508.63;5121887;28;19920;-62
2022/05/20 02:52:38;;;;;;;;;;;;;;;23.92;100.00;98514.75;5121711;28;19920;-60
2022/05/20 02:55:07;;;;;;;;;;;;;;;23.89;100.00;98516.19;5113803;28;19927;-60
2022/05/20 02:57:35;;;;;;;;;;;;;;;23.93;100.00;98514.41;5121945;28;19920;-61
2022/05/20 03:05:49;;;;;;;;;;;;;;;23.75;100.00;98514.91;5040226;28;19937;-61
2022/05/20 03:08:17;;;;;;;;;;;;;;;23.76;100.00;98511.03;5043151;28;19928;-61
2022/05/20 03:10:45;;;;;;;;;;;;;;;23.75;100.00;98509.44;5079969;28;19983;-61
2022/05/20 03:13:13;;;;;;;;;;;;;;;23.51;100.00;98519.09;5118741;28;19920;-61
2022/05/20 03:15:42;;;;;;;;;;;;;;;23.61;100.00;98517.91;5125086;28;19919;-61
2022/05/20 03:18:11;;;;;;;;;;;;;;;23.60;100.00;98506.22;5114069;28;19926;-61
2022/05/20 03:20:41;;;;;;;;;;;;;;;23.62;100.00;98512.13;5121696;28;19975;-60
2022/05/20 03:23:10;;;;;;;;;;;;;;;23.67;100.00;98513.84;5113608;28;19920;-61
2022/05/20 03:25:38;;;;;;;;;;;;;;;23.72;100.00;98515.56;5121607;28;19927;-61
2022/05/20 03:28:06;;;;;;;;;;;;;;;23.69;100.00;98513.50;5125317;28;19920;-61
2022/05/20 03:30:33;;;;;;;;;;;;;;;23.68;100.00;98515.44;5124996;28;19997;-61
2022/05/20 03:33:02;;;;;;;;;;;;;;;23.67;100.00;98513.84;5122334;28;19920;-61
2022/05/20 03:35:30;;;;;;;;;;;;;;;23.70;100.00;98513.19;5121654;28;19920;-61
2022/05/20 03:37:57;;;;;;;;;;;;;;;23.70;100.00;98513.19;5123710;28;19920;-61
2022/05/20 03:40:24;;;;;;;;;;;;;;;23.70;100.00;98518.63;5125046;28;19920;-61
2022/05/20 03:42:52;;;;;;;;;;;;;;;23.71;100.00;98514.75;5117295;28;19946;-60
2022/05/20 03:45:25;;;;;;;;;;;;;;;23.74;100.00;98514.09;5125184;28;19920;-60
2022/05/20 03:47:53;;;;;;;;;;;;;;;23.65;100.00;98514.16;5123558;28;19919;-61
2022/05/20 03:50:22;;;;;;;;;;;;;;;23.69;100.00;98513.50;5124682;28;19959;-61
2022/05/20 03:52:50;;;;;;;;;;;;;;;23.66;100.00;98512.25;5126572;28;19920;-60
2022/05/20 03:55:17;;;;;;;;;;;;;;;23.58;100.00;98518.59;5129014;28;20418;-61
2022/05/20 03:57:45;;;;;;;;;;;;;;;23.58;100.00;98508.44;5128187;28;19920;-61
2022/05/20 04:00:13;;;;;;;;;;;;;;;23.61;100.00;98499.59;5125297;28;19924;-61
2022/05/20 04:02:39;;;;;;;;;;;;;;;23.59;100.00;98499.16;5125289;28;19920;-61
2022/05/20 04:05:07;;;;;;;;;;;;;;;23.65;100.00;98502.47;5116705;28;19920;-61
2022/05/20 04:07:38;;;;;;;;;;;;;;;23.67;100.00;98507.59;5124951;28;19955;-61
2022/05/20 04:10:07;;;;;;;;;;;;;;;23.69;100.00;98499.88;5128722;28;19919;-61
2022/05/20 04:12:35;;;;;;;;;;;;;;;23.54;100.00;98499.34;5121438;28;19966;-62
2022/05/20 04:15:02;;;;;;;;;;;;;;;23.63;100.00;98502.81;5127714;28;19985;-61
2022/05/20 04:17:29;;;;;;;;;;;;;;;23.51;100.00;98508.19;5128148;28;20334;-61
2022/05/20 04:19:57;;;;;;;;;;;;;;;23.59;100.00;98510.06;5126021;28;20371;-62
2022/05/20 04:22:26;;;;;;;;;;;;;;;23.51;100.00;98508.19;5124794;28;19927;-61
2022/05/20 04:24:56;;;;;;;;;;;;;;;23.49;100.00;98512.38;5126194;28;19920;-62
2022/05/20 04:27:22;;;;;;;;;;;;;;;23.37;100.00;98515.81;5125551;28;19931;-61
2022/05/20 04:29:49;;;;;;;;;;;;;;;23.18;100.00;98507.25;5124224;28;19924;-61
2022/05/20 04:32:16;;;;;;;;;;;;;;;22.89;100.00;98507.28;5121720;28;19963;-61
2022/05/20 04:34:42;;;;;;;;;;;;;;;23.04;100.00;98504.00;5121904;28;19966;-61
2022/05/20 04:37:08;;;;;;;;;;;;;;;22.95;100.00;98503.25;5125313;28;19931;-61
2022/05/20 04:39:35;;;;;;;;;;;;;;;23.13;100.00;98504.75;5125245;28;20094;-62
2022/05/20 04:47:32;;;;;;;;;;;;;;;23.21;100.00;98490.25;5125436;28;19946;-61
2022/05/20 04:49:58;;;;;;;;;;;;;;;23.02;100.00;98503.53;5122921;28;19924;-62
2022/05/20 04:52:25;;;;;;;;;;;;;;;22.98;100.00;98491.69;5121621;28;20012;-61
2022/05/20 04:54:50;;;;;;;;;;;;;;;22.83;100.00;98503.16;5122391;28;19924;-61
2022/05/20 04:57:32;;;;;;;;;;;;;;;22.67;100.00;98496.66;5124700;28;19930;-61
2022/05/20 05:00:00;;;;;;;;;;;;;;;22.91;100.00;98503.13;5121958;28;19923;-62
2022/05/20 05:02:27;;;;;;;;;;;;;;;23.06;100.00;98504.47;5120974;28;20009;-60
2022/05/20 05:04:53;;;;;;;;;;;;;;;23.17;100.00;98510.34;5122866;28;19928;-61
2022/05/20 05:07:19;;;;;;;;;;;;;;;22.60;100.00;98511.56;5124413;28;19983;-61
2022/05/20 05:09:46;;;;;;;;;;;;;;;22.38;100.00;98517.25;5123301;28;19958;-61
2022/05/20 05:12:13;;;;;;;;;;;;;;;22.37;100.00;98512.94;5120789;28;19924;-61
2022/05/20 05:14:41;;;;;;;;;;;;;;;22.14;100.00;98517.00;5121170;28;19980;-61
2022/05/20 05:17:08;;;;;;;;;;;;;;;22.49;100.00;98517.69;5112753;28;19991;-61
2022/05/20 05:19:36;;;;;;;;;;;;;;;21.94;100.00;98528.56;5120765;28;19924;-60
2022/05/20 05:22:02;;;;;;;;;;;;;;;21.83;100.00;98525.31;5123715;28;20300;-60
2022/05/20 05:24:29;;;;;;;;;;;;;;;21.65;100.00;98517.50;5124017;28;19928;-61
2022/05/20 05:26:55;;;;;;;;;;;;;;;21.33;100.00;98530.44;5121819;28;19991;-60
2022/05/20 05:29:21;;;;;;;;;;;;;;;21.74;100.00;98529.97;5120561;28;19995;-60
2022/05/20 05:31:49;;;;;;;;;;;;;;;20.92;100.00;98535.44;5121197;28;19924;-60
2022/05/20 05:34:15;;;;;;;;;;;;;;;20.80;100.00;98527.88;5124091;28;19979;-61
2022/05/20 05:36:42;;;;;;;;;;;;;;;20.48;100.00;98528.22;5123608;28;19923;-61
2022/05/20 05:39:08;;;;;;;;;;;;;;;20.43;100.00;98523.72;5120659;28;19931;-61
2022/05/20 05:41:35;;;;;;;;;;;;;;;20.42;100.00;98532.19;5120215;28;19983;-61
2022/05/20 05:44:02;;;;;;;;;;;;;;;20.29;100.00;98528.47;5120782;28;19943;-61
2022/05/20 05:46:28;;;;;;;;;;;;;;;20.52;100.00;98526.47;5120161;28;19920;-60
2022/05/20 05:48:56;;;;;;;;;;;;;;;21.14;100.00;98524.47;5121971;28;19970;-60
2022/05/20 05:51:22;;;;;;;;;;;;;;;21.23;100.00;98529.94;5123482;28;19987;-61
2022/05/20 05:53:48;;;;;;;;;;;;;;;21.13;100.00;98531.03;5122408;28;19934;-61
2022/05/20 05:56:15;;;;;;;;;;;;;;;21.04;100.00;98526.66;5120308;28;19987;-61
2022/05/20 05:58:41;;;;;;;;;;;;;;;20.93;100.00;98534.31;5119729;28;19991;-61
2022/05/20 06:01:07;;;;;;;;;;;;;;;20.57;100.00;98526.34;5123545;28;19923;-64
2022/05/20 06:03:35;;;;;;;;;;;;;;;20.40;100.00;98532.50;5123456;28;19951;-61
2022/05/20 06:06:02;;;;;;;;;;;;;;;20.51;100.00;98532.22;5120417;28;19995;-60
2022/05/20 06:08:29;;;;;;;;;;;;;;;20.47;100.00;98537.47;5120021;28;19971;-62
2022/05/20 06:10:55;;;;;;;;;;;;;;;20.44;100.00;98524.53;5121502;28;19947;-61
2022/05/20 06:13:22;;;;;;;;;;;;;;;20.35;100.00;98537.25;5122532;28;19989;-61
2022/05/20 06:15:49;;;;;;;;;;;;;;;20.36;100.00;98544.28;5121810;28;19951;-61
2022/05/20 06:18:15;;;;;;;;;;;;;;;20.50;100.00;98531.41;5119559;28;19924;-61
2022/05/20 06:20:41;;;;;;;;;;;;;;;20.42;100.00;98537.63;5119626;28;19928;-61
2022/05/20 06:23:09;;;;;;;;;;;;;;;20.63;100.00;98533.25;5123245;28;19930;-60
2022/05/20 06:25:35;;;;;;;;;;;;;;;20.74;100.00;98531.03;5122807;28;19924;-61
2022/05/20 06:28:06;;;;;;;;;;;;;;;20.72;100.00;98525.13;5119727;28;19934;-61
2022/05/20 06:30:34;;;;;;;;;;;;;;;20.72;100.00;98519.69;5119523;28;19984;-62
2022/05/20 06:33:02;;;;;;;;;;;;;;;20.83;100.00;98521.00;5122140;28;19928;-62
2022/05/20 06:40:58;;;;;;;;;;;;;;;20.88;100.00;98508.09;5121641;28;19947;-61
2022/05/20 06:43:26;;;;;;;;;;;;;;;20.81;100.00;98510.47;5122665;28;20002;-61
2022/05/20 06:45:55;;;;;;;;;;;;;;;21.15;100.00;98506.25;5121198;28;19942;-61
2022/05/20 06:48:22;;;;;;;;;;;;;;;21.08;100.00;98506.69;5119368;28;19930;-61
2022/05/20 06:50:48;;;;;;;;;;;;;;;20.99;100.00;98497.72;5120082;28;20687;-61
2022/05/20 06:53:16;;;;;;;;;;;;;;;21.30;100.00;98503.88;5122642;28;19930;-61
2022/05/20 06:55:42;;;;;;;;;;;;;;;21.64;100.00;98502.28;5122377;28;19998;-61
2022/05/20 06:58:13;;;;;;;;;;;;;;;21.65;100.00;98506.63;5118951;28;19991;-62
2022/05/20 07:00:40;;;;;;;;;;;;;;;21.57;100.00;98507.44;5118989;28;19959;-61
2022/05/20 07:03:06;;;;;;;;;;;;;;;21.63;100.00;98506.16;5110936;28;19926;-62
2022/05/20 07:05:34;;;;;;;;;;;;;;;21.63;100.00;98517.03;5119148;28;19924;-61
2022/05/20 07:08:00;;;;;;;;;;;;;;;21.73;100.00;98512.06;5121929;28;19966;-60
2022/05/20 07:10:28;;;;;;;;;;;;;;;21.77;100.00;98506.78;5122394;28;19969;-60
2022/05/20 07:12:54;;;;;;;;;;;;;;;21.92;100.00;98501.66;5114537;28;19955;-61
2022/05/20 07:15:20;;;;;;;;;;;;;;;21.89;100.00;98499.59;5122517;28;19987;-62
2022/05/20 07:17:47;;;;;;;;;;;;;;;22.18;100.00;98504.34;5121346;28;19924;-61
2022/05/20 07:20:14;;;;;;;;;;;;;;;22.64;100.00;98502.75;5118898;28;19983;-61
2022/05/20 07:22:40;;;;;;;;;;;;;;;23.20;100.00;98493.31;5119012;28;19925;-61
2022/05/20 07:25:07;;;;;;;;;;;;;;;23.20;100.00;98496.84;5114567;28;19935;-62
2022/05/20 07:27:34;;;;;;;;;;;;;;;22.97;100.00;98506.44;5122716;28;19927;-61
2022/05/20 07:30:01;;;;;;;;;;;;;;;23.01;100.00;98496.50;5125643;28;19927;-60
2022/05/20 07:32:27;;;;;;;;;;;;;;;22.77;100.00;98496.31;5126224;28;19923;-61
2022/05/20 07:34:53;;;;;;;;;;;;;;;22.58;100.00;98499.41;5124460;28;19930;-60
2022/05/20 07:37:19;;;;;;;;;;;;;;;22.53;100.00;98486.75;5122738;28;20360;-62
2022/05/20 07:39:48;;;;;;;;;;;;;;;23.70;100.00;98485.91;5123191;28;20011;-62
2022/05/20 07:42:15;;;;;;;;;;;;;;;23.07;100.00;98478.81;5122243;28;19925;-61
2022/05/20 07:44:43;;;;;;;;;;;;;;;22.90;100.00;98478.94;5122787;28;19995;-61
2022/05/20 07:47:10;;;;;;;;;;;;;;;22.69;100.00;98478.88;5126070;28;20019;-61
2022/05/20 07:49:36;;;;;;;;;;;;;;;22.64;100.00;98483.69;5125796;28;19926;-61
2022/05/20 07:52:03;;;;;;;;;;;;;;;22.45;100.00;98479.44;5122738;28;19927;-61
2022/05/20 07:54:31;;;;;;;;;;;;;;;22.66;100.00;98476.00;5122428;28;19924;-61
2022/05/20 07:57:00;;;;;;;;;;;;;;;22.80;100.00;98484.75;5124717;28;19924;-61
2022/05/20 07:59:30;;;;;;;;;;;;;;;22.96;100.00;98472.19;5125920;28;19936;-60
2022/05/20 08:01:58;;;;;;;;;;;;;;;22.96;100.00;98472.19;5123985;28;19947;-61
2022/05/20 08:07:11;;;;;;;;;;;;;;;23.12;100.00;98470.44;5114940;28;19928;-60
2022/05/20 08:09:38;;;;;;;;;;;;;;;23.31;100.00;98468.06;5122592;28;19973;-61
2022/05/20 08:12:04;;;;;;;;;;;;;;;24.03;100.00;98461.34;5122767;28;19967;-61
2022/05/20 08:14:31;;;;;;;;;;;;;;;23.84;100.00;98459.13;5122430;28;19924;-61
2022/05/20 08:16:59;;;;;;;;;;;;;;;23.66;100.00;98452.25;5124542;28;20334;-61
2022/05/20 08:19:26;;;;;;;;;;;;;;;23.38;100.00;98459.34;5125604;28;19951;-61
2022/05/20 08:21:52;;;;;;;;;;;;;;;23.37;100.00;98447.66;5123764;28;19924;-61
2022/05/20 08:24:18;;;;;;;;;;;;;;;23.51;100.00;98450.94;5122005;28;19950;-61
2022/05/20 08:26:45;;;;;;;;;;;;;;;23.52;100.00;98451.75;5122382;28;19924;-60
2022/05/20 08:29:12;;;;;;;;;;;;;;;23.25;100.00;98453.03;5125238;28;19958;-61
2022/05/20 08:31:38;;;;;;;;;;;;;;;23.79;100.00;98450.38;5125254;28;19923;-61
2022/05/20 08:34:06;;;;;;;;;;;;;;;23.98;100.00;98447.94;5121558;28;19924;-61
2022/05/20 08:36:34;;;;;;;;;;;;;;;24.23;100.00;98446.88;5121248;28;19959;-60
2022/05/20 08:39:00;;;;;;;;;;;;;;;24.22;100.00;98442.53;5124508;28;19924;-61
2022/05/20 08:41:27;;;;;;;;;;;;;;;24.11;100.00;98444.09;5125212;28;19927;-61
2022/05/20 08:43:54;;;;;;;;;;;;;;;24.67;100.00;98426.84;5123426;28;19930;-61
2022/05/20 08:46:22;;;;;;;;;;;;;;;24.25;100.00;98436.41;5121768;28;19924;-62
2022/05/20 08:48:51;;;;;;;;;;;;;;;24.00;100.00;98432.00;5122615;28;20401;-62
2022/05/20 08:51:19;;;;;;;;;;;;;;;23.88;100.00;98432.78;5125094;28;19959;-61
2022/05/20 08:53:46;;;;;;;;;;;;;;;24.01;100.00;98430.88;5124059;28;19966;-62
2022/05/20 08:56:13;;;;;;;;;;;;;;;24.35;100.00;98427.78;5121829;28;19992;-62
2022/05/20 08:58:43;;;;;;;;;;;;;;;24.10;100.00;98428.84;5121538;28;19931;-62
2022/05/20 09:01:13;;;;;;;;;;;;;;;23.91;100.00;98425.84;5113532;28;19946;-61
2022/05/20 09:03:39;;;;;;;;;;;;;;;23.80;100.00;98422.75;5121175;28;19924;-62
2022/05/20 09:06:06;;;;;;;;;;;;;;;23.82;100.00;98425.16;5124610;28;19920;-61
2022/05/20 09:08:34;;;;;;;;;;;;;;;23.84;100.00;98425.59;5124540;28;20438;-61
2022/05/20 09:11:01;;;;;;;;;;;;;;;23.97;100.00;98408.13;5121645;28;19951;-61
2022/05/20 09:16:09;;;;;;;;;;;;;;;24.27;100.00;98400.56;5112967;28;19931;-62
2022/05/20 09:18:39;;;;;;;;;;;;;;;24.36;100.00;98401.25;5120745;28;19933;-61
2022/05/20 09:21:06;;;;;;;;;;;;;;;24.32;100.00;98403.91;5124392;28;19924;-62
2022/05/20 09:23:47;;;;;;;;;;;;;;;24.40;100.00;98400.25;5124323;28;19955;-61
2022/05/20 09:26:16;;;;;;;;;;;;;;;24.58;100.00;98401.59;5113544;28;19995;-61
2022/05/20 09:28:45;;;;;;;;;;;;;;;24.52;100.00;98397.50;5120896;28;19924;-61
2022/05/20 09:31:16;;;;;;;;;;;;;;;24.64;100.00;98391.22;5124260;28;19959;-61
2022/05/20 09:33:49;;;;;;;;;;;;;;;24.68;100.00;98384.75;5123786;28;19924;-61
2022/05/20 09:36:31;;;;;;;;;;;;;;;24.86;100.00;98379.06;5120943;28;19935;-61
2022/05/20 09:39:07;;;;;;;;;;;;;;;24.87;100.00;98381.44;5122710;28;19991;-61
2022/05/20 09:41:33;;;;;;;;;;;;;;;25.03;100.00;98376.06;5124074;28;19924;-61
2022/05/20 09:44:01;;;;;;;;;;;;;;;25.20;100.00;98379.31;5121465;28;20447;-62
2022/05/20 09:46:30;;;;;;;;;;;;;;;25.41;100.00;98368.16;5119491;28;19959;-60
2022/05/20 09:48:58;;;;;;;;;;;;;;;25.33;100.00;98371.06;5122452;28;20287;-61
2022/05/20 09:51:30;;;;;;;;;;;;;;;25.42;100.00;98377.16;5123835;28;20014;-60
2022/05/20 09:54:05;;;;;;;;;;;;;;;25.66;100.00;98358.72;5121308;28;19930;-61
2022/05/20 09:56:33;;;;;;;;;;;;;;;25.73;100.00;98361.66;5120124;28;19954;-61
2022/05/20 09:59:03;;;;;;;;;;;;;;;25.83;100.00;98356.81;5122699;28;19928;-61
2022/05/20 10:01:31;;;;;;;;;;;;;;;25.78;100.00;98361.38;5123444;28;19923;-62
2022/05/20 10:03:59;;;;;;;;;;;;;;;25.58;100.00;98354.22;5121221;28;19945;-62
2022/05/20 10:06:29;;;;;;;;;;;;;;;25.74;100.00;98356.97;5120140;28;19983;-62
2022/05/20 10:09:00;;;;;;;;;;;;;;;25.50;100.00;98352.41;5122174;28;19924;-60
2022/05/20 10:11:29;;;;;;;;;;;;;;;25.51;100.00;98350.47;5123578;28;19951;-66
2022/05/20 10:14:05;;;;;;;;;;;;;;;25.57;100.00;98347.16;5121226;28;19947;-61
2022/05/20 10:16:34;;;;;;;;;;;;;;;25.53;100.00;98340.78;5119898;28;19930;-61
2022/05/20 10:19:05;;;;;;;;;;;;;;;25.58;100.00;98348.75;5122420;28;19980;-61
2022/05/20 10:21:49;;;;;;;;;;;;;;;25.72;100.00;98335.44;5123373;28;19951;-61
2022/05/20 10:24:25;;;;;;;;;;;;;;;25.95;100.00;98340.31;5112713;28;19931;-62
2022/05/20 10:26:56;;;;;;;;;;;;;;;25.90;100.00;98326.88;5120789;28;19955;-62
2022/05/20 10:32:37;;;;;;;;;;;;;;;26.07;100.00;98321.84;5106023;28;19924;-61
2022/05/20 10:35:05;;;;;;;;;;;;;;;26.26;100.00;98313.75;5122640;28;19951;-62
2022/05/20 10:37:38;;;;;;;;;;;;;;;26.38;100.00;98314.75;5122776;28;19934;-62
2022/05/20 10:40:17;;;;;;;;;;;;;;;26.30;100.00;98305.59;5119491;28;20010;-62
2022/05/20 10:42:55;;;;;;;;;;;;;;;26.30;100.00;98303.63;5119557;28;19924;-61
2022/05/20 10:48:35;;;;;;;;;;;;;;;26.75;100.00;98294.88;5101489;28;19950;-61
2022/05/20 10:51:05;;;;;;;;;;;;;;;26.88;100.00;98292.00;5118992;28;21154;-61
2022/05/20 10:53:42;;;;;;;;;;;;;;;26.98;100.00;98294.19;5118135;28;19979;-62
2022/05/20 10:56:18;;;;;;;;;;;;;;;26.95;100.00;98286.69;5111255;28;19935;-62
2022/05/20 10:59:02;;;;;;;;;;;;;;;27.13;100.00;98282.34;5119145;28;19931;-62
2022/05/20 11:01:38;;;;;;;;;;;;;;;27.13;100.00;98272.16;5122476;28;19919;-61
2022/05/20 11:04:16;;;;;;;;;;;;;;;27.14;100.00;98273.72;5118428;28;19936;-61
2022/05/20 11:06:52;;;;;;;;;;;;;;;27.24;100.00;98272.34;5119165;28;19987;-63
2022/05/20 11:09:25;;;;;;;;;;;;;;;27.32;100.00;98274.09;5122046;28;21314;-62
2022/05/20 11:11:59;;;;;;;;;;;;;;;27.32;100.00;98261.19;5120980;28;20006;-62
2022/05/20 11:14:43;;;;;;;;;;;;;;;27.40;100.00;98253.84;5118983;28;19932;-62
2022/05/20 11:17:20;;;;;;;;;;;;;;;27.52;100.00;98253.69;5106879;28;19925;-62
2022/05/20 11:20:00;;;;;;;;;;;;;;;27.57;100.00;98241.66;5119612;28;19939;-61
2022/05/20 11:22:45;;;;;;;;;;;;;;;27.70;100.00;98229.28;5122393;28;19979;-62
2022/05/20 11:25:22;;;;;;;;;;;;;;;27.80;100.00;98225.94;5111433;28;20035;-62
2022/05/20 11:28:13;;;;;;;;;;;;;;;27.90;100.00;98222.56;5119942;28;19926;-62
2022/05/20 11:30:52;;;;;;;;;;;;;;;27.70;100.00;98216.38;5116246;28;19920;-62
2022/05/20 11:33:36;;;;;;;;;;;;;;;27.80;100.00;98221.25;5112024;28;19931;-62
2022/05/20 11:36:15;;;;;;;;;;;;;;;27.89;100.00;98213.53;5121747;28;19930;-62
2022/05/20 11:39:00;;;;;;;;;;;;;;;27.94;100.00;98203.41;5122302;28;19942;-63
2022/05/20 11:41:31;;;;;;;;;;;;;;;27.99;100.00;98203.09;5118714;28;19956;-61
2022/05/20 11:44:23;;;;;;;;;;;;;;;27.99;100.00;98205.81;5119166;28;19946;-62
2022/05/20 11:47:06;;;;;;;;;;;;;;;28.14;97.68;98200.22;5119669;28;19983;-62
2022/05/20 11:49:43;;;;;;;;;;;;;;;28.24;95.66;98191.31;5121926;28;19940;-61
2022/05/20 11:52:27;;;;;;;;;;;;;;;28.20;94.60;98187.72;5110737;28;19991;-62
2022/05/20 11:54:56;;;;;;;;;;;;;;;28.06;99.82;98181.25;5120267;28;19934;-62
2022/05/20 11:57:26;;;;;;;;;;;;;;;28.24;95.68;98182.28;5122186;28;19951;-61
2022/05/20 11:59:57;;;;;;;;;;;;;;;28.33;95.01;98175.34;5120576;28;19991;-62
2022/05/20 12:02:26;;;;;;;;;;;;;;;28.38;95.29;98176.97;5118760;28;19924;-62
2022/05/20 12:04:54;;;;;;;;;;;;;;;28.67;94.50;98170.69;5119745;28;19924;-62
2022/05/20 12:07:23;;;;;;;;;;;;;;;28.44;95.04;98174.72;5121964;28;19931;-62
2022/05/20 12:09:49;;;;;;;;;;;;;;;28.56;94.53;98169.75;5121315;28;19924;-63
2022/05/20 12:12:18;;;;;;;;;;;;;;;28.65;94.87;98153.78;5122347;28;19999;-62
2022/05/20 12:15:03;;;;;;;;;;;;;;;28.30;98.65;98153.34;5122449;28;19996;-62
2022/05/20 12:17:30;;;;;;;;;;;;;;;28.29;92.71;98149.00;5125450;28;19958;-62
2022/05/20 12:25:37;;;;;;;;;;;;;;;28.68;84.28;98119.28;5125228;28;19935;-61
2022/05/20 12:28:06;;;;;;;;;;;;;;;28.66;86.91;98116.88;5122293;28;19959;-62
2022/05/20 12:30:40;;;;;;;;;;;;;;;28.50;84.91;98113.56;5121767;28;19924;-62
2022/05/20 12:33:20;;;;;;;;;;;;;;;28.50;84.42;98108.06;5113248;28;20442;-61
2022/05/20 12:36:16;;;;;;;;;;;;;;;28.56;84.17;98105.75;5121281;28;19940;-62
2022/05/20 12:38:43;;;;;;;;;;;;;;;28.50;80.93;98108.06;5124727;28;19923;-62
2022/05/20 12:41:23;;;;;;;;;;;;;;;28.81;76.28;98107.59;5121716;28;19931;-61
2022/05/20 12:43:51;;;;;;;;;;;;;;;28.68;78.41;98100.03;5121993;28;19988;-62
2022/05/20 12:46:28;;;;;;;;;;;;;;;28.50;83.00;98097.06;5121569;28;19924;-61
2022/05/20 12:48:55;;;;;;;;;;;;;;;28.56;83.30;98100.28;5122918;28;19931;-61
2022/05/20 12:51:24;;;;;;;;;;;;;;;28.49;80.15;98087.25;5125081;28;20007;-62
2022/05/20 12:53:50;;;;;;;;;;;;;;;28.67;74.51;98079.19;5123414;28;19923;-62
2022/05/20 12:56:28;;;;;;;;;;;;;;;28.64;76.57;98080.72;5121245;28;20007;-61
2022/05/20 12:59:11;;;;;;;;;;;;;;;28.54;75.42;98070.41;5122931;28;19984;-61
2022/05/20 13:01:38;;;;;;;;;;;;;;;29.00;68.93;98065.38;5124600;28;19983;-62
2022/05/20 13:04:12;;;;;;;;;;;;;;;28.84;71.75;98060.13;5121293;28;19992;-62
2022/05/20 13:06:44;;;;;;;;;;;;;;;28.73;73.08;98055.69;5121016;28;19931;-61
2022/05/20 13:09:10;;;;;;;;;;;;;;;28.88;69.64;98051.91;5113107;28;19924;-61
2022/05/20 13:11:40;;;;;;;;;;;;;;;28.67;70.08;98047.03;5120861;28;19938;-62
2022/05/20 13:14:11;;;;;;;;;;;;;;;28.70;69.65;98039.97;5120359;28;20016;-62
2022/05/20 13:16:37;;;;;;;;;;;;;;;28.97;64.68;98046.13;5120971;28;19984;-62
2022/05/20 13:19:05;;;;;;;;;;;;;;;28.76;66.24;98042.00;5124083;28;19924;-60
2022/05/20 13:21:36;;;;;;;;;;;;;;;29.12;62.87;98042.31;5124108;28;19984;-63
2022/05/20 13:24:12;;;;;;;;;;;;;;;28.88;65.35;98029.91;5121712;28;19980;-62
2022/05/20 13:26:39;;;;;;;;;;;;;;;29.19;63.13;98025.81;5120805;28;19931;-61